Paramaribo, Paramaribo Zorg en Hoop Airport (SMZO)

NameParamaribo Zorg en Hoop Airport
CityParamaribo
CountrySuriname
ICAOSMZO
IATAORG
Altitude3 m
CoordinatesGoogle Map
Live Air TrafficLiveATC.net
METARSMZO 172100Z 07010KT 9999 FEW020 28/22 Q1012 NOSIG
2019-01-17 21:00:00 Wind: East-Northeast (70°) 5.14 m/s - Visibility: > 10000 m - Temperature: 28 °C - Dew point: 22 °C - Humidity: 69.9% - Pressure: 1012 hPa
Statistics

The table below shows the detailed information of all flights to/from Paramaribo, Paramaribo Zorg en Hoop Airport (SMZO).